Time;durP1;ratioP1;P1;durP2;ratioP2;P2;SDS_P1;SDS_P2;PMS_P1;PMS_P2;Temp;Humidity;BMP_temperature;BMP_pressure;BME280_temperature;BME280_humidity;BME280_pressure;Samples;Min_cycle;Max_cycle;Signal;HPM_P1;HPM_P2
2021/08/28 00:00:59;;;;;;;1.02;0.80;;;;;;;13.75;92.95;102102.06;4842791;29;20034;-82
2021/08/28 00:03:24;;;;;;;1.00;0.80;;;;;;;13.63;92.64;102070.06;4827507;29;20031;-83
2021/08/28 00:05:50;;;;;;;1.13;0.85;;;;;;;13.74;92.56;102089.56;4821040;29;20118;-81
2021/08/28 00:08:16;;;;;;;0.95;0.70;;;;;;;13.79;92.33;102089.84;4833904;29;20072;-82
2021/08/28 00:10:41;;;;;;;1.27;0.77;;;;;;;13.63;92.72;102072.78;4840777;29;20041;-82
2021/08/28 00:13:08;;;;;;;2.65;0.90;;;;;;;13.75;92.68;102096.66;4853421;29;20034;-81
2021/08/28 00:15:33;;;;;;;1.30;0.82;;;;;;;13.66;92.48;102060.75;4857881;29;20058;-81
2021/08/28 00:17:59;;;;;;;2.00;0.80;;;;;;;13.84;92.57;102081.97;4843294;29;20067;-83
2021/08/28 00:20:24;;;;;;;1.67;1.00;;;;;;;13.80;92.44;102089.63;4857650;29;20030;-82
2021/08/28 00:22:50;;;;;;;2.05;1.05;;;;;;;13.92;92.32;102075.66;4841036;29;20038;-82
2021/08/28 00:25:16;;;;;;;1.48;0.80;;;;;;;13.92;92.48;102078.34;4837844;29;20052;-81
2021/08/28 00:27:42;;;;;;;1.90;0.98;;;;;;;13.92;92.68;102084.59;4827112;29;20031;-82
2021/08/28 00:30:10;;;;;;;3.13;1.05;;;;;;;13.70;92.52;102039.56;4792268;29;20039;-82
2021/08/28 00:32:37;;;;;;;1.67;1.10;;;;;;;13.93;92.53;102078.16;4812525;29;20034;-81
2021/08/28 00:35:04;;;;;;;1.83;1.10;;;;;;;13.89;93.00;102084.13;4790840;29;20041;-83
2021/08/28 00:37:29;;;;;;;2.88;1.00;;;;;;;13.86;92.92;102088.88;4829222;29;20022;-83
2021/08/28 00:39:55;;;;;;;1.30;1.05;;;;;;;13.88;93.02;102077.91;4824541;29;20069;-82
2021/08/28 00:42:20;;;;;;;1.20;1.10;;;;;;;13.85;93.07;102089.09;4824017;29;20031;-82
2021/08/28 00:44:47;;;;;;;2.83;1.02;;;;;;;13.90;92.96;102091.22;4838591;29;20055;-82
2021/08/28 00:47:16;;;;;;;2.17;1.00;;;;;;;13.83;92.75;102088.44;4812277;29;20038;-81
2021/08/28 00:49:45;;;;;;;1.40;1.00;;;;;;;13.84;92.94;102084.69;4807728;29;20035;-82
2021/08/28 00:52:11;;;;;;;2.72;1.13;;;;;;;13.56;93.27;102061.03;4809785;29;20034;-82
2021/08/28 00:54:38;;;;;;;1.27;0.90;;;;;;;13.80;93.07;102088.81;4853817;29;20122;-82
2021/08/28 00:57:05;;;;;;;1.20;1.00;;;;;;;13.29;93.01;102005.78;4826547;29;20038;-82
2021/08/28 00:59:32;;;;;;;1.70;1.02;;;;;;;13.72;93.22;102083.50;4854837;29;20022;-82
2021/08/28 01:01:57;;;;;;;1.42;0.90;;;;;;;13.75;93.22;102085.84;4850832;29;20030;-82
2021/08/28 01:04:28;;;;;;;1.13;0.98;;;;;;;13.68;93.26;102088.47;4842505;29;20496;-83
2021/08/28 01:07:18;;;;;;;1.85;1.17;;;;;;;13.68;93.49;102096.56;4842161;29;20532;-83
2021/08/28 01:09:48;;;;;;;2.20;1.20;;;;;;;13.28;93.67;102033.03;4840658;29;20030;-81
2021/08/28 01:12:17;;;;;;;1.83;1.17;;;;;;;13.69;93.56;102108.22;4849292;29;20041;-83
2021/08/28 01:14:46;;;;;;;1.45;1.10;;;;;;;13.60;93.16;102077.72;4857556;29;20338;-81
2021/08/28 01:17:15;;;;;;;1.52;1.35;;;;;;;13.69;93.39;102087.44;4823472;29;20038;-83
2021/08/28 01:19:40;;;;;;;2.15;1.30;;;;;;;13.74;93.60;102105.78;4823244;29;20361;-82
2021/08/28 01:22:13;;;;;;;1.48;1.00;;;;;;;13.75;93.26;102111.03;4839021;29;20026;-82
2021/08/28 01:24:44;;;;;;;1.75;1.30;;;;;;;13.61;93.39;102088.38;4822120;29;20107;-82
2021/08/28 01:27:31;;;;;;;2.85;1.50;;;;;;;13.79;93.55;102103.38;4838110;29;20090;-82
2021/08/28 01:29:58;;;;;;;1.77;1.50;;;;;;;13.79;93.14;102109.63;4819742;29;20046;-82
2021/08/28 01:32:25;;;;;;;2.80;1.33;;;;;;;13.80;93.29;102115.84;4853582;29;20033;-82
2021/08/28 01:34:52;;;;;;;2.25;1.40;;;;;;;13.89;92.53;102120.16;4824449;29;20030;-83
2021/08/28 01:37:21;;;;;;;1.90;1.42;;;;;;;13.91;92.51;102117.25;4844669;29;20035;-82
2021/08/28 01:39:48;;;;;;;2.50;1.25;;;;;;;13.92;93.09;102119.78;4838940;29;20113;-82
2021/08/28 01:42:15;;;;;;;1.65;1.20;;;;;;;13.70;92.81;102090.97;4838639;29;20040;-82
2021/08/28 01:44:44;;;;;;;2.30;1.20;;;;;;;13.79;93.01;102111.50;4838535;29;20030;-82
2021/08/28 01:47:10;;;;;;;2.05;1.08;;;;;;;13.83;92.76;102115.50;4837990;29;20071;-82
2021/08/28 01:49:39;;;;;;;2.38;1.45;;;;;;;13.71;92.85;102103.47;4823409;29;20034;-82
2021/08/28 01:52:05;;;;;;;1.65;1.30;;;;;;;13.72;92.99;102103.28;4840686;29;20038;-83
2021/08/28 01:54:31;;;;;;;2.65;1.30;;;;;;;13.88;92.72;102112.22;4823967;29;20033;-82
2021/08/28 01:56:57;;;;;;;1.65;1.30;;;;;;;13.92;92.71;102129.75;4824882;29;20056;-82
2021/08/28 01:59:23;;;;;;;2.53;1.60;;;;;;;13.95;92.48;102118.56;4827054;29;20060;-82
2021/08/28 02:01:49;;;;;;;2.53;1.50;;;;;;;13.90;92.41;102129.94;4837798;29;20126;-82
2021/08/28 02:04:14;;;;;;;1.88;1.40;;;;;;;13.62;92.71;102075.69;4823393;29;20475;-82
2021/08/28 02:06:59;;;;;;;2.30;1.50;;;;;;;13.67;92.42;102088.63;4838519;29;20073;-83
2021/08/28 02:09:36;;;;;;;2.10;1.60;;;;;;;13.85;92.81;102119.69;4839432;29;20037;-83
2021/08/28 02:12:14;;;;;;;4.63;1.50;;;;;;;13.73;93.09;102098.72;4845143;29;20483;-82
2021/08/28 02:15:02;;;;;;;2.30;1.92;;;;;;;13.68;93.02;102090.34;4838984;29;20042;-82
2021/08/28 02:17:30;;;;;;;4.85;1.75;;;;;;;13.87;93.09;102108.66;4822994;29;20034;-83
2021/08/28 02:20:03;;;;;;;3.03;1.70;;;;;;;13.79;93.13;102093.38;4822727;29;20059;-82
2021/08/28 02:22:32;;;;;;;2.28;1.60;;;;;;;13.83;93.21;102108.19;4835046;29;20433;-83
2021/08/28 02:25:07;;;;;;;1.90;1.58;;;;;;;13.75;93.21;102091.25;4823793;29;20058;-83
2021/08/28 02:27:45;;;;;;;1.95;1.70;;;;;;;13.82;93.10;102094.88;4822211;29;20093;-82
2021/08/28 02:30:13;;;;;;;3.17;1.92;;;;;;;13.90;92.72;102094.75;4838379;29;20035;-82
2021/08/28 02:32:38;;;;;;;2.38;1.80;;;;;;;13.86;92.87;102098.88;4838640;29;20026;-82
2021/08/28 02:35:05;;;;;;;2.25;2.00;;;;;;;13.91;93.00;102095.59;4822167;29;20038;-83
2021/08/28 02:37:36;;;;;;;3.13;1.98;;;;;;;13.85;92.90;102075.56;4836700;29;20045;-81
2021/08/28 02:40:07;;;;;;;3.65;1.80;;;;;;;13.90;92.79;102083.94;4838729;29;20049;-82
2021/08/28 02:42:33;;;;;;;3.13;1.80;;;;;;;13.85;93.42;102097.22;4837307;29;20045;-82
2021/08/28 02:45:02;;;;;;;2.85;2.35;;;;;;;13.81;93.31;102083.22;4822701;29;20030;-83
2021/08/28 02:47:30;;;;;;;3.08;1.88;;;;;;;13.86;93.00;102085.34;4822234;29;20051;-82
2021/08/28 02:49:58;;;;;;;3.08;2.10;;;;;;;13.92;92.80;102095.41;4825551;29;20088;-83
2021/08/28 02:52:26;;;;;;;2.67;1.98;;;;;;;13.83;93.23;102083.84;4825490;29;20098;-83
2021/08/28 02:54:55;;;;;;;2.65;2.00;;;;;;;13.86;92.99;102083.47;4829977;29;20058;-82
2021/08/28 02:57:22;;;;;;;3.47;2.00;;;;;;;13.88;92.84;102090.59;4842598;29;20060;-82
2021/08/28 02:59:49;;;;;;;2.83;2.03;;;;;;;13.80;92.95;102078.81;4826087;29;20041;-82
2021/08/28 03:02:18;;;;;;;2.53;1.92;;;;;;;13.69;93.16;102071.19;4810066;29;20015;-82
2021/08/28 03:04:44;;;;;;;2.10;1.88;;;;;;;13.89;92.74;102087.69;4825910;29;20026;-82
2021/08/28 03:07:11;;;;;;;2.80;2.10;;;;;;;13.78;92.61;102059.25;4825725;29;20113;-83
2021/08/28 03:09:38;;;;;;;2.45;2.10;;;;;;;13.54;92.44;102021.69;4828314;29;20026;-82
2021/08/28 03:12:04;;;;;;;2.63;2.13;;;;;;;13.67;92.41;102058.88;4832536;29;20072;-82
2021/08/28 03:14:30;;;;;;;4.95;1.98;;;;;;;13.91;92.01;102091.03;4841214;29;20151;-82
2021/08/28 03:16:57;;;;;;;3.22;2.15;;;;;;;13.93;91.89;102088.13;4840032;29;20087;-82
2021/08/28 03:19:25;;;;;;;2.90;2.15;;;;;;;13.82;92.05;102076.78;4824626;29;20058;-81
2021/08/28 03:21:53;;;;;;;3.42;2.20;;;;;;;13.94;91.88;102087.97;4830668;29;20015;-82
2021/08/28 03:24:41;;;;;;;2.60;2.20;;;;;;;13.97;91.70;102084.00;4806052;29;20119;-82
2021/08/28 03:27:07;;;;;;;6.35;2.10;;;;;;;13.83;91.64;102083.84;4806776;29;20026;-82
2021/08/28 03:29:35;;;;;;;3.13;2.40;;;;;;;13.86;91.70;102061.84;4822309;29;20049;-82
2021/08/28 03:32:03;;;;;;;3.15;2.10;;;;;;;13.90;91.59;102067.69;4806967;29;20069;-82
2021/08/28 03:34:31;;;;;;;4.85;2.30;;;;;;;13.91;91.44;102077.50;4822002;29;20141;-82
2021/08/28 03:36:56;;;;;;;5.80;2.53;;;;;;;13.95;91.67;102089.63;4818949;29;20042;-83
2021/08/28 03:39:24;;;;;;;2.80;2.30;;;;;;;13.96;91.39;102079.63;4802773;30;20035;-81
2021/08/28 03:41:49;;;;;;;2.85;2.22;;;;;;;13.93;91.96;102082.72;4812820;29;20027;-82
2021/08/28 03:44:16;;;;;;;3.67;2.40;;;;;;;13.79;91.54;102062.78;4829362;29;20042;-82
2021/08/28 03:46:45;;;;;;;3.17;2.47;;;;;;;13.89;91.94;102079.56;4822582;29;20381;-82
2021/08/28 03:49:10;;;;;;;3.45;2.60;;;;;;;13.83;91.88;102075.75;4836010;29;20055;-82
2021/08/28 03:51:37;;;;;;;3.92;2.45;;;;;;;13.91;92.10;102087.47;4823704;29;20038;-83
2021/08/28 03:54:03;;;;;;;4.10;2.47;;;;;;;13.95;92.21;102083.38;4817810;29;20047;-82
2021/08/28 03:56:29;;;;;;;3.65;2.63;;;;;;;13.93;91.59;102067.31;4819311;29;20102;-82
2021/08/28 03:58:54;;;;;;;4.30;2.47;;;;;;;13.62;91.68;102035.94;4803268;29;20098;-82
2021/08/28 04:01:20;;;;;;;4.47;2.80;;;;;;;13.97;91.59;102081.31;4819679;29;20065;-82
2021/08/28 04:03:46;;;;;;;3.15;2.50;;;;;;;13.88;92.10;102077.06;4838170;29;20499;-82
2021/08/28 04:06:11;;;;;;;3.30;2.20;;;;;;;13.93;91.84;102091.66;4838957;29;20045;-82
2021/08/28 04:08:37;;;;;;;2.60;2.40;;;;;;;13.94;92.03;102084.38;4807394;29;20111;-82
2021/08/28 04:11:02;;;;;;;2.97;2.30;;;;;;;13.95;92.09;102080.69;4836436;29;20070;-81
2021/08/28 04:13:28;;;;;;;3.55;2.80;;;;;;;13.95;92.14;102091.50;4803575;29;20038;-82
2021/08/28 04:15:54;;;;;;;3.72;2.45;;;;;;;13.93;92.42;102094.38;4818584;29;20134;-82
2021/08/28 04:18:20;;;;;;;4.60;2.90;;;;;;;13.90;92.34;102088.50;4821507;29;20046;-82
2021/08/28 04:20:45;;;;;;;3.10;2.50;;;;;;;13.90;91.98;102088.50;4809021;29;20095;-82
2021/08/28 04:23:11;;;;;;;4.15;2.50;;;;;;;13.70;91.97;102044.97;4805021;29;20073;-82
2021/08/28 04:25:36;;;;;;;3.70;2.65;;;;;;;13.91;92.16;102069.41;4788363;29;20059;-82
2021/08/28 04:28:02;;;;;;;3.60;2.55;;;;;;;13.76;92.34;102087.50;4804520;29;20069;-82
2021/08/28 04:30:28;;;;;;;3.55;2.72;;;;;;;13.84;92.37;102073.88;4820532;29;20039;-82
2021/08/28 04:32:54;;;;;;;3.20;2.17;;;;;;;13.86;92.41;102074.53;4817916;29;20041;-81
2021/08/28 04:35:20;;;;;;;3.75;2.75;;;;;;;13.90;92.34;102093.91;4804914;29;20031;-82
2021/08/28 04:37:45;;;;;;;6.75;2.80;;;;;;;13.83;92.57;102091.13;4803315;29;20485;-82
2021/08/28 04:40:12;;;;;;;5.65;2.67;;;;;;;13.73;92.55;102061.66;4823491;29;20377;-82
2021/08/28 04:42:37;;;;;;;5.32;2.70;;;;;;;13.90;92.66;102078.53;4834342;29;20027;-82
2021/08/28 04:45:04;;;;;;;3.95;2.75;;;;;;;13.76;91.96;102069.41;4801730;29;20043;-82
2021/08/28 04:47:31;;;;;;;4.82;2.60;;;;;;;13.90;92.27;102094.75;4819293;29;20056;-82
2021/08/28 04:49:56;;;;;;;3.97;2.92;;;;;;;13.87;92.20;102089.72;4822136;29;20037;-82
2021/08/28 04:52:21;;;;;;;4.35;2.92;;;;;;;13.79;91.97;102077.16;4813975;29;20023;-82
2021/08/28 04:54:47;;;;;;;3.60;2.85;;;;;;;13.93;92.30;102080.84;4821850;29;20039;-82
2021/08/28 04:57:12;;;;;;;4.05;2.90;;;;;;;13.84;92.38;102085.56;4805007;29;20047;-82
2021/08/28 04:59:38;;;;;;;4.45;3.15;;;;;;;13.94;91.94;102090.66;4819814;29;20026;-82
2021/08/28 05:02:04;;;;;;;5.38;3.00;;;;;;;13.61;92.12;102031.59;4831907;29;20445;-82
2021/08/28 05:04:30;;;;;;;4.75;3.40;;;;;;;13.81;92.09;102063.44;4833727;29;20350;-82
2021/08/28 05:06:55;;;;;;;4.93;3.50;;;;;;;13.89;92.19;102082.25;4836311;29;20046;-82
2021/08/28 05:09:21;;;;;;;5.53;3.03;;;;;;;13.78;92.49;102080.91;4801711;29;20077;-82
2021/08/28 05:11:47;;;;;;;7.97;3.25;;;;;;;13.94;92.20;102079.84;4817538;29;20045;-82
2021/08/28 05:14:13;;;;;;;6.57;3.33;;;;;;;13.77;92.37;102052.13;4817415;29;20412;-82
2021/08/28 05:16:38;;;;;;;5.25;3.92;;;;;;;13.93;92.47;102077.31;4833011;29;20137;-82
2021/08/28 05:19:03;;;;;;;7.63;3.90;;;;;;;13.93;92.54;102080.00;4835068;29;20034;-83
2021/08/28 05:21:30;;;;;;;5.82;3.55;;;;;;;13.85;92.53;102068.28;4790300;29;20031;-82
2021/08/28 05:23:57;;;;;;;6.35;3.65;;;;;;;13.85;92.67;102086.38;4802983;29;20437;-83
2021/08/28 05:26:23;;;;;;;5.70;3.45;;;;;;;13.87;92.78;102070.78;4809303;29;20042;-82
2021/08/28 05:28:49;;;;;;;7.82;3.67;;;;;;;13.93;92.55;102088.13;4823758;29;20075;-83
2021/08/28 05:31:16;;;;;;;4.82;3.58;;;;;;;13.66;92.28;102032.88;4855973;29;20053;-82
2021/08/28 05:33:42;;;;;;;5.90;3.85;;;;;;;13.99;92.27;102081.97;4826900;29;20102;-81
2021/08/28 05:36:07;;;;;;;4.72;3.53;;;;;;;14.01;91.97;102078.03;4849012;29;20022;-83
2021/08/28 05:38:33;;;;;;;5.20;3.95;;;;;;;13.84;92.27;102063.03;4863727;29;20033;-84
2021/08/28 05:40:59;;;;;;;6.35;3.88;;;;;;;13.81;91.94;102058.03;4828803;29;20019;-83
2021/08/28 05:43:24;;;;;;;5.40;3.63;;;;;;;14.04;92.20;102088.50;4829103;29;20051;-84
2021/08/28 05:45:50;;;;;;;5.72;3.33;;;;;;;13.93;92.36;102071.91;4813131;29;20045;-82
2021/08/28 05:48:15;;;;;;;7.00;3.85;;;;;;;14.00;92.30;102076.34;4826441;29;20038;-81
2021/08/28 05:50:41;;;;;;;5.43;3.35;;;;;;;13.95;92.11;102054.44;4819566;29;20048;-81
2021/08/28 05:53:06;;;;;;;5.22;3.80;;;;;;;14.01;91.75;102061.81;4822402;29;20505;-82
2021/08/28 05:55:32;;;;;;;5.13;3.50;;;;;;;13.98;92.30;102055.94;4804685;29;20042;-82
2021/08/28 05:57:57;;;;;;;6.35;3.92;;;;;;;14.03;92.20;102053.47;4831759;29;20659;-82
2021/08/28 06:00:24;;;;;;;8.10;3.97;;;;;;;14.10;91.81;102055.25;4801005;29;20045;-81
2021/08/28 06:02:49;;;;;;;6.43;3.25;;;;;;;14.06;91.85;102061.22;4791860;29;20034;-79
2021/08/28 06:05:15;;;;;;;10.23;3.58;;;;;;;14.09;91.88;102069.78;4791108;29;20045;-81
2021/08/28 06:07:40;;;;;;;5.68;3.50;;;;;;;13.92;91.71;102035.88;4815477;29;20403;-82
2021/08/28 06:10:06;;;;;;;5.22;3.40;;;;;;;14.13;91.44;102058.59;4825952;29;20043;-82
2021/08/28 06:12:34;;;;;;;8.02;3.83;;;;;;;14.16;91.56;102058.22;4825933;29;20042;-81
2021/08/28 06:15:00;;;;;;;5.82;3.17;;;;;;;13.95;91.43;102019.28;4830341;29;20065;-82
2021/08/28 06:17:26;;;;;;;6.72;3.25;;;;;;;14.07;91.02;102025.88;4840472;29;20053;-81
2021/08/28 06:19:53;;;;;;;5.25;3.38;;;;;;;14.36;90.98;102045.69;4794134;29;20042;-81
2021/08/28 06:22:18;;;;;;;5.03;3.10;;;;;;;14.32;90.24;102039.00;4805701;29;20067;-80
2021/08/28 06:24:44;;;;;;;6.25;3.00;;;;;;;14.21;89.89;102013.28;4820154;29;20042;-82
2021/08/28 06:27:11;;;;;;;5.88;3.30;;;;;;;14.39;89.87;102041.78;4813255;29;20049;-81
2021/08/28 06:29:36;;;;;;;6.07;2.63;;;;;;;14.28;89.60;102029.59;4811143;29;20026;-83
2021/08/28 06:32:03;;;;;;;6.43;2.90;;;;;;;14.23;89.75;102029.31;4838078;29;20045;-81
2021/08/28 06:34:28;;;;;;;4.05;2.65;;;;;;;14.37;89.65;102035.69;4824271;29;20334;-83
2021/08/28 06:36:54;;;;;;;4.35;2.92;;;;;;;14.15;89.53;102033.00;4841288;29;20021;-81
2021/08/28 06:39:19;;;;;;;7.75;2.65;;;;;;;14.17;89.27;102030.09;4854992;29;20038;-81
2021/08/28 06:41:44;;;;;;;3.88;2.20;;;;;;;14.38;89.18;102043.66;4818998;29;20079;-82
2021/08/28 06:44:10;;;;;;;3.65;2.10;;;;;;;14.40;89.00;102030.72;4836720;29;20038;-81
2021/08/28 06:46:35;;;;;;;5.18;2.40;;;;;;;14.59;88.53;102041.97;4819568;29;20050;-82
2021/08/28 06:49:01;;;;;;;4.60;2.38;;;;;;;14.62;88.04;102047.00;4825164;29;20027;-81
2021/08/28 06:51:27;;;;;;;5.18;2.65;;;;;;;14.73;87.83;102039.16;4838044;29;20034;-83
2021/08/28 06:53:52;;;;;;;2.80;2.08;;;;;;;14.76;87.78;102036.06;4822265;29;20616;-83
2021/08/28 06:56:19;;;;;;;3.45;1.90;;;;;;;14.80;87.11;102031.97;4810566;29;20030;-83
2021/08/28 06:58:45;;;;;;;3.00;2.20;;;;;;;14.90;86.86;102028.91;4846220;29;20461;-82
2021/08/28 07:01:12;;;;;;;4.28;2.28;;;;;;;14.94;86.60;102023.91;4857600;29;20044;-82
2021/08/28 07:03:37;;;;;;;5.07;2.20;;;;;;;15.10;86.60;102039.00;4828778;29;20049;-81
2021/08/28 07:06:03;;;;;;;4.57;2.50;;;;;;;15.01;86.33;102033.75;4828909;29;20039;-82
2021/08/28 07:08:28;;;;;;;4.88;1.83;;;;;;;15.00;86.22;102032.09;4844015;29;20026;-82
2021/08/28 07:10:54;;;;;;;3.72;2.15;;;;;;;14.90;85.39;102039.75;4813886;29;20123;-81
2021/08/28 07:13:20;;;;;;;3.55;2.03;;;;;;;14.91;85.25;102046.84;4827020;29;20022;-81
2021/08/28 07:15:45;;;;;;;4.00;2.20;;;;;;;14.92;85.37;102034.94;4814319;29;20058;-81
2021/08/28 07:18:11;;;;;;;5.60;2.20;;;;;;;15.00;84.51;102033.97;4844718;29;20041;-81
2021/08/28 07:20:38;;;;;;;2.95;1.90;;;;;;;15.07;84.48;102029.44;4830824;29;20026;-83
2021/08/28 07:23:03;;;;;;;2.72;2.00;;;;;;;15.24;84.13;102030.78;4832824;29;20066;-84
2021/08/28 07:25:28;;;;;;;3.03;1.92;;;;;;;15.30;83.53;102023.72;4847298;29;20045;-84
2021/08/28 07:27:54;;;;;;;5.75;2.10;;;;;;;15.22;83.63;102034.72;4857795;29;20021;-84
2021/08/28 07:30:19;;;;;;;4.25;1.95;;;;;;;15.06;83.19;101994.38;4863973;29;20106;-83
2021/08/28 07:32:45;;;;;;;4.53;2.10;;;;;;;15.19;83.44;102040.53;4841705;29;20026;-82
2021/08/28 07:35:10;;;;;;;4.53;2.22;;;;;;;15.23;83.52;102029.13;4827323;29;20053;-83
2021/08/28 07:37:36;;;;;;;4.78;1.90;;;;;;;14.97;82.79;102005.38;4844073;29;20076;-83
2021/08/28 07:40:04;;;;;;;3.42;1.92;;;;;;;15.27;82.29;102048.53;4827735;29;20050;-83
2021/08/28 07:42:31;;;;;;;4.95;2.00;;;;;;;15.24;81.54;102021.81;4844124;29;20083;-83
2021/08/28 07:44:56;;;;;;;2.63;1.95;;;;;;;15.33;81.60;102022.47;4841576;29;20061;-82
2021/08/28 07:47:22;;;;;;;4.03;1.90;;;;;;;15.25;81.89;102004.50;4860875;29;20041;-83
2021/08/28 07:49:47;;;;;;;3.78;1.70;;;;;;;15.47;81.79;102027.75;4834093;29;20035;-83
2021/08/28 07:52:17;;;;;;;4.47;1.90;;;;;;;15.61;81.38;102016.97;4830049;29;20034;-80
2021/08/28 09:13:53;;;;;;;5.65;1.65;;;;;;;16.12;77.68;102014.63;705002;24;20230;-82
2021/08/28 09:16:32;;;;;;;2.72;1.67;;;;;;;16.24;77.30;102027.59;4866483;29;20070;-85
2021/08/28 09:18:59;;;;;;;4.88;1.80;;;;;;;15.85;76.75;101945.03;4867960;29;20077;-85
2021/08/28 09:21:32;;;;;;;2.78;1.60;;;;;;;16.01;76.92;101965.53;4883385;29;20030;-83
2021/08/28 09:24:00;;;;;;;4.30;1.60;;;;;;;15.08;76.37;101840.50;4868077;29;20053;-84
2021/08/28 09:26:39;;;;;;;3.97;1.80;;;;;;;15.27;76.03;101818.88;4884654;29;20040;-84
2021/08/28 09:29:06;;;;;;;1.90;1.65;;;;;;;15.52;75.58;101840.81;4883619;29;20033;-83
2021/08/28 09:31:41;;;;;;;2.75;2.05;;;;;;;16.08;75.50;101893.06;4858152;29;20035;-83
2021/08/28 09:34:18;;;;;;;4.70;1.60;;;;;;;16.84;73.98;102007.56;4900819;29;20029;-83
2021/08/28 09:36:45;;;;;;;2.28;1.58;;;;;;;15.45;74.15;101801.16;4896360;29;20033;-84
2021/08/28 09:39:11;;;;;;;2.35;1.60;;;;;;;15.56;74.18;101859.38;4883309;29;20022;-83
2021/08/28 09:41:37;;;;;;;2.83;1.67;;;;;;;15.85;74.75;101926.88;4881740;29;20032;-81
2021/08/28 09:44:10;;;;;;;2.80;1.77;;;;;;;15.32;74.65;101850.78;4871157;29;20044;-83
2021/08/28 09:46:39;;;;;;;2.80;1.73;;;;;;;14.98;75.59;101801.06;4885050;29;20037;-84
2021/08/28 09:49:05;;;;;;;1.98;1.40;;;;;;;15.08;76.35;101818.81;4895523;29;20037;-82
2021/08/28 09:51:39;;;;;;;2.83;1.77;;;;;;;15.42;76.28;101869.38;4882735;29;20029;-82
2021/08/28 09:54:11;;;;;;;4.20;1.52;;;;;;;16.25;76.21;102005.66;4882324;29;20036;-82
2021/08/28 09:56:41;;;;;;;3.80;1.60;;;;;;;16.07;77.26;102009.00;4864185;29;20013;-83
2021/08/28 09:59:22;;;;;;;4.10;1.77;;;;;;;14.70;77.44;101824.72;4851763;29;20025;-83
2021/08/28 10:01:49;;;;;;;3.80;1.80;;;;;;;16.04;77.68;102011.28;4873294;29;20049;-83
2021/08/28 10:04:15;;;;;;;3.45;1.50;;;;;;;16.05;77.20;102010.22;4888501;29;20347;-80
2021/08/28 10:06:48;;;;;;;3.55;1.77;;;;;;;15.15;76.94;101887.44;4902683;29;20020;-83
2021/08/28 10:09:17;;;;;;;2.10;1.67;;;;;;;14.68;77.02;101805.97;4885246;29;20033;-82
2021/08/28 10:11:48;;;;;;;2.85;1.73;;;;;;;14.87;77.17;101838.78;4859063;29;20039;-84
2021/08/28 10:14:17;;;;;;;3.05;1.80;;;;;;;15.04;77.37;101856.34;4869718;29;20057;-83
2021/08/28 10:16:48;;;;;;;2.92;1.70;;;;;;;15.98;77.20;101986.63;4885355;29;20046;-82
2021/08/28 10:19:16;;;;;;;2.53;1.70;;;;;;;15.43;77.25;101900.88;4870867;29;20045;-83
2021/08/28 10:21:46;;;;;;;2.10;1.60;;;;;;;15.22;77.13;101908.09;4884736;29;20037;-83
2021/08/28 10:24:16;;;;;;;3.05;1.55;;;;;;;15.89;77.16;102009.59;4870615;29;20033;-83
2021/08/28 10:26:43;;;;;;;2.83;1.42;;;;;;;15.93;77.45;101994.56;4869510;29;20528;-83
2021/08/28 10:29:13;;;;;;;4.20;1.83;;;;;;;15.51;77.13;101906.97;4869914;29;20061;-83
2021/08/28 10:31:41;;;;;;;3.25;1.60;;;;;;;15.32;77.09;101853.50;4884440;29;20093;-83
2021/08/28 10:34:07;;;;;;;4.55;1.83;;;;;;;15.08;76.70;101818.81;4884883;29;20089;-83
2021/08/28 10:36:33;;;;;;;3.08;1.90;;;;;;;16.12;76.52;101976.59;4880776;29;20464;-82
2021/08/28 10:38:59;;;;;;;2.92;1.98;;;;;;;15.62;76.34;101877.53;4885088;29;20151;-83
2021/08/28 10:41:26;;;;;;;4.13;1.80;;;;;;;15.68;75.07;101855.06;4869248;29;20036;-83
2021/08/28 10:43:52;;;;;;;3.10;1.65;;;;;;;15.61;75.22;101802.63;4885645;29;20044;-82
2021/08/28 10:46:26;;;;;;;3.80;1.83;;;;;;;15.83;74.99;101827.72;4885297;29;20029;-83
2021/08/28 10:48:54;;;;;;;2.50;1.77;;;;;;;15.58;74.63;101792.19;4886197;29;20009;-83
2021/08/28 10:51:41;;;;;;;3.28;1.80;;;;;;;16.12;74.54;101867.16;4885442;29;20095;-82
2021/08/28 10:54:12;;;;;;;4.00;1.60;;;;;;;15.73;74.37;101790.16;4877629;29;20029;-83
2021/08/28 10:56:55;;;;;;;2.55;1.83;;;;;;;16.82;73.86;101974.34;4887963;29;20021;-83
2021/08/28 10:59:24;;;;;;;4.53;1.90;;;;;;;15.85;73.65;101825.63;4900531;29;20074;-83
2021/08/28 11:01:59;;;;;;;2.95;1.48;;;;;;;16.31;73.83;101866.31;4888163;29;20017;-82
2021/08/28 11:04:37;;;;;;;;;;;;;;;16.96;74.12;101982.47;4867259;29;20029;-83
2021/08/28 11:07:39;;;;;;;2.50;1.70;;;;;;;16.39;74.29;101941.31;4882719;29;19955;-83
2021/08/28 11:10:28;;;;;;;2.47;1.88;;;;;;;16.52;74.59;101989.38;4898778;29;20029;-83
2021/08/28 11:13:04;;;;;;;1.90;1.70;;;;;;;15.87;74.82;101894.94;4868970;29;20033;-83
2021/08/28 11:15:33;;;;;;;2.55;1.83;;;;;;;16.70;75.24;101989.56;4868292;29;20073;-83
2021/08/28 11:18:04;;;;;;;2.38;1.80;;;;;;;15.64;73.82;101794.91;4886861;29;20101;-83
2021/08/28 11:20:35;;;;;;;4.68;2.08;;;;;;;15.87;73.44;101818.94;4903182;29;20093;-82
2021/08/28 11:23:08;;;;;;;3.08;1.90;;;;;;;16.89;74.41;101991.47;4883797;29;20022;-83
2021/08/28 11:25:36;;;;;;;4.65;2.20;;;;;;;15.58;73.73;101790.31;4884425;29;20017;-82
2021/08/28 11:28:05;;;;;;;3.63;1.88;;;;;;;16.82;73.83;101977.06;4867585;29;20054;-82
2021/08/28 11:30:45;;;;;;;4.13;1.90;;;;;;;16.88;73.21;101987.06;4882946;29;20093;-82
2021/08/28 11:33:20;;;;;;;2.00;1.70;;;;;;;16.00;73.33;101866.97;4867827;29;20094;-82
2021/08/28 11:35:50;;;;;;;2.78;1.90;;;;;;;15.80;73.67;101858.84;4881338;29;20081;-81
2021/08/28 11:38:26;;;;;;;5.03;1.80;;;;;;;15.98;73.85;101885.34;4868658;29;20029;-83
2021/08/28 11:41:04;;;;;;;2.72;1.88;;;;;;;15.44;74.63;101808.47;4854836;29;20054;-83
2021/08/28 11:43:43;;;;;;;2.25;1.80;;;;;;;15.68;74.38;101808.94;4868479;29;20039;-82
2021/08/28 11:46:10;;;;;;;3.35;1.75;;;;;;;16.44;73.50;101941.53;4883818;29;20041;-82
2021/08/28 11:48:37;;;;;;;3.47;2.15;;;;;;;16.04;73.24;101875.53;4884597;29;20037;-83
2021/08/28 11:51:09;;;;;;;3.13;1.90;;;;;;;16.78;73.44;101986.66;4867874;29;20036;-82
2021/08/28 11:53:38;;;;;;;2.53;1.70;;;;;;;15.88;73.71;101845.03;4884169;29;20037;-83
2021/08/28 11:56:08;;;;;;;4.18;1.88;;;;;;;16.74;74.08;101984.56;4884464;29;20036;-82
2021/08/28 11:58:47;;;;;;;3.28;1.95;;;;;;;16.62;74.10;101976.19;4900169;29;20068;-82
2021/08/28 12:01:36;;;;;;;3.30;1.65;;;;;;;15.66;73.97;101843.53;4880419;29;20051;-83
2021/08/28 12:04:07;;;;;;;3.03;1.80;;;;;;;15.00;73.85;101793.56;4868079;29;20037;-84
2021/08/28 12:06:38;;;;;;;2.30;1.63;;;;;;;15.60;74.84;101893.22;4883044;29;20040;-82
2021/08/28 12:09:07;;;;;;;2.28;1.75;;;;;;;15.34;75.01;101843.28;4865919;29;20076;-84
2021/08/28 12:11:35;;;;;;;2.38;1.70;;;;;;;15.28;75.02;101854.94;4885368;29;20756;-82
2021/08/28 12:14:04;;;;;;;5.07;1.95;;;;;;;14.92;75.55;101796.44;4867064;29;20022;-82
2021/08/28 12:16:31;;;;;;;3.13;1.80;;;;;;;16.02;75.41;101980.78;4883414;29;20081;-82
2021/08/28 12:18:59;;;;;;;4.80;1.92;;;;;;;14.72;75.50;101800.97;4865114;29;20058;-82
2021/08/28 12:21:25;;;;;;;2.90;1.90;;;;;;;14.66;75.73;101786.34;4864254;29;20022;-82
2021/08/28 12:23:50;;;;;;;3.50;1.80;;;;;;;15.57;75.34;101913.44;4871244;29;20036;-83
2021/08/28 12:26:18;;;;;;;3.10;2.10;;;;;;;14.82;74.99;101787.88;4886277;29;20044;-83
2021/08/28 12:28:44;;;;;;;1.77;1.50;;;;;;;14.89;75.41;101794.16;4898511;29;20051;-82
2021/08/28 12:31:10;;;;;;;2.63;1.70;;;;;;;15.32;75.40;101858.91;4884068;29;20242;-83
2021/08/28 12:33:40;;;;;;;2.92;1.63;;;;;;;15.43;75.65;101858.34;4867938;29;20074;-83
2021/08/28 12:36:24;;;;;;;4.20;1.63;;;;;;;16.20;76.30;101990.00;4882157;29;20078;-83
2021/08/28 12:39:04;;;;;;;3.05;1.88;;;;;;;15.38;76.10;101841.81;4864243;29;20037;-82
2021/08/28 12:41:30;;;;;;;2.00;1.70;;;;;;;15.31;76.31;101881.66;4863230;29;20037;-82
2021/08/28 12:43:57;;;;;;;2.40;1.80;;;;;;;15.23;77.03;101901.66;4884481;29;20053;-82
2021/08/28 12:46:23;;;;;;;2.10;1.63;;;;;;;14.97;77.29;101850.06;4867418;29;20037;-83
2021/08/28 12:49:19;;;;;;;2.72;1.83;;;;;;;14.41;77.68;101794.13;4884064;29;20077;-83